Airfield :
LOGIN :

Register | Disclaimer

   EN    FR    IT 

 










Legend :    VFR   Marginal VFR   IFR   Intensive IFR   Very Intensive IFR
Visi :
Ceiling :
>= 8 km
>= 3000ft
5 to 8 km
1000 to 3000 ft
1500m to 5 km
500 to 1000 ft
800 to 1500m
200 to 500 ft
< 800m
< 200 ft
Symbols :   Thunderstorms  Fog  Heavy snow  Heavy precipitations  Wind > 20 kt
SIGMETs :     Misc.  Thunderstorms  Icing  Turbulence  Mountain Waves  Volcanic Ashes






- Airport Elevation : 538 ft
- IATA code : TNF


LFPN - Toussus Le Noble

CURRENT METAR :
  • 010500Z AUTO 03005KT CAVOK 01/M05 Q1022

EXPIRED METARs :
  • 010430Z AUTO 02003KT 340V040 CAVOK 01/M05 Q1022
  • 010400Z AUTO VRB02KT CAVOK 01/M05 Q1022
  • 010330Z AUTO VRB03KT CAVOK 01/M04 Q1022
  • 010300Z AUTO VRB03KT CAVOK 02/M04 Q1022
  • 010230Z AUTO 02004KT CAVOK 02/M04 Q1022

TAF TAF LFPN
Valid from the 01 at 06:00 until the 01 at 15:00 UTC


010500Z 0106/0115 03008KT CAVOK
ATIS : +33 1 39 56 54 70



MET'MAP, your aeronautical weather chart ! - Copyright ORBIFLY December 2007 - Disclaimer

ORBIFLY MET'MAP TEAM :

Programming & Development : Alexandra Zaïnal
Concept & original design : Baudouin d'Aumeries
Assistance for programming : Marc-Olivier Méhu
Technical & hardware support : Manuel Goepfert

Contact : metmap@orbifly.com




SOURCES & CREDITS :

   NOAA